sensor_id;sensor_type;location;lat;lon;timestamp;P1;durP1;ratioP1;P2;durP2;ratioP2
68987;SDS011;56038;46.080;11.116;2023-05-10T00:02:31;3.45;;;2.85;;
68987;SDS011;56038;46.080;11.116;2023-05-10T00:07:32;3.92;;;3.33;;
68987;SDS011;56038;46.080;11.116;2023-05-10T00:12:34;4.00;;;3.63;;
68987;SDS011;56038;46.080;11.116;2023-05-10T00:17:37;3.35;;;3.10;;
68987;SDS011;56038;46.080;11.116;2023-05-10T00:22:39;4.88;;;3.55;;
68987;SDS011;56038;46.080;11.116;2023-05-10T00:27:40;2.92;;;2.72;;
68987;SDS011;56038;46.080;11.116;2023-05-10T00:32:43;4.15;;;3.30;;
68987;SDS011;56038;46.080;11.116;2023-05-10T00:37:45;3.03;;;2.80;;
68987;SDS011;56038;46.080;11.116;2023-05-10T00:42:47;4.03;;;3.70;;
68987;SDS011;56038;46.080;11.116;2023-05-10T00:47:50;3.35;;;3.05;;
68987;SDS011;56038;46.080;11.116;2023-05-10T00:52:52;3.08;;;2.78;;
68987;SDS011;56038;46.080;11.116;2023-05-10T00:57:54;3.42;;;3.13;;
68987;SDS011;56038;46.080;11.116;2023-05-10T01:02:57;5.57;;;3.70;;
68987;SDS011;56038;46.080;11.116;2023-05-10T01:07:59;4.65;;;4.25;;
68987;SDS011;56038;46.080;11.116;2023-05-10T01:13:01;4.95;;;4.43;;
68987;SDS011;56038;46.080;11.116;2023-05-10T01:18:04;4.32;;;3.92;;
68987;SDS011;56038;46.080;11.116;2023-05-10T01:23:11;3.80;;;3.50;;
68987;SDS011;56038;46.080;11.116;2023-05-10T01:28:38;4.15;;;3.05;;
68987;SDS011;56038;46.080;11.116;2023-05-10T01:34:09;3.60;;;3.30;;
68987;SDS011;56038;46.080;11.116;2023-05-10T01:39:19;4.10;;;3.33;;
68987;SDS011;56038;46.080;11.116;2023-05-10T01:44:29;4.25;;;3.95;;
68987;SDS011;56038;46.080;11.116;2023-05-10T01:49:39;4.55;;;4.00;;
68987;SDS011;56038;46.080;11.116;2023-05-10T01:54:44;4.63;;;4.10;;
68987;SDS011;56038;46.080;11.116;2023-05-10T01:59:53;3.72;;;3.42;;
68987;SDS011;56038;46.080;11.116;2023-05-10T02:04:57;4.35;;;3.95;;
68987;SDS011;56038;46.080;11.116;2023-05-10T02:10:00;4.03;;;3.72;;
68987;SDS011;56038;46.080;11.116;2023-05-10T02:15:04;5.72;;;4.28;;
68987;SDS011;56038;46.080;11.116;2023-05-10T02:20:09;3.63;;;3.33;;
68987;SDS011;56038;46.080;11.116;2023-05-10T02:30:15;4.13;;;3.78;;
68987;SDS011;56038;46.080;11.116;2023-05-10T02:35:21;4.18;;;3.58;;
68987;SDS011;56038;46.080;11.116;2023-05-10T02:40:24;4.03;;;3.10;;
68987;SDS011;56038;46.080;11.116;2023-05-10T02:45:29;3.13;;;2.72;;
68987;SDS011;56038;46.080;11.116;2023-05-10T02:50:33;2.83;;;2.55;;
68987;SDS011;56038;46.080;11.116;2023-05-10T02:55:39;3.78;;;3.03;;
68987;SDS011;56038;46.080;11.116;2023-05-10T03:00:42;3.53;;;3.13;;
68987;SDS011;56038;46.080;11.116;2023-05-10T03:05:54;3.33;;;2.90;;
68987;SDS011;56038;46.080;11.116;2023-05-10T03:11:15;2.50;;;2.30;;
68987;SDS011;56038;46.080;11.116;2023-05-10T03:16:27;2.92;;;2.72;;
68987;SDS011;56038;46.080;11.116;2023-05-10T03:21:36;3.60;;;2.97;;
68987;SDS011;56038;46.080;11.116;2023-05-10T03:26:43;3.70;;;3.40;;
68987;SDS011;56038;46.080;11.116;2023-05-10T03:31:45;3.13;;;2.83;;
68987;SDS011;56038;46.080;11.116;2023-05-10T03:36:48;3.05;;;2.60;;
68987;SDS011;56038;46.080;11.116;2023-05-10T03:41:50;3.58;;;3.28;;
68987;SDS011;56038;46.080;11.116;2023-05-10T03:46:52;3.60;;;3.05;;
68987;SDS011;56038;46.080;11.116;2023-05-10T03:51:55;4.22;;;3.17;;
68987;SDS011;56038;46.080;11.116;2023-05-10T03:56:56;2.83;;;2.63;;
68987;SDS011;56038;46.080;11.116;2023-05-10T04:01:58;3.88;;;3.45;;
68987;SDS011;56038;46.080;11.116;2023-05-10T04:07:01;3.17;;;2.88;;
68987;SDS011;56038;46.080;11.116;2023-05-10T04:12:03;4.38;;;3.10;;
68987;SDS011;56038;46.080;11.116;2023-05-10T04:17:05;2.83;;;2.63;;
68987;SDS011;56038;46.080;11.116;2023-05-10T04:22:08;5.43;;;3.70;;
68987;SDS011;56038;46.080;11.116;2023-05-10T04:27:10;3.72;;;3.22;;
68987;SDS011;56038;46.080;11.116;2023-05-10T04:32:12;3.00;;;2.70;;
68987;SDS011;56038;46.080;11.116;2023-05-10T04:37:15;3.28;;;2.97;;
68987;SDS011;56038;46.080;11.116;2023-05-10T04:42:17;3.78;;;3.40;;
68987;SDS011;56038;46.080;11.116;2023-05-10T04:47:18;3.58;;;3.20;;
68987;SDS011;56038;46.080;11.116;2023-05-10T04:52:21;3.25;;;3.00;;
68987;SDS011;56038;46.080;11.116;2023-05-10T04:57:23;3.22;;;2.88;;
68987;SDS011;56038;46.080;11.116;2023-05-10T05:02:24;4.00;;;3.67;;
68987;SDS011;56038;46.080;11.116;2023-05-10T05:07:27;4.25;;;3.85;;
68987;SDS011;56038;46.080;11.116;2023-05-10T05:12:30;3.40;;;3.10;;
68987;SDS011;56038;46.080;11.116;2023-05-10T05:17:32;3.40;;;2.92;;
68987;SDS011;56038;46.080;11.116;2023-05-10T05:22:35;4.70;;;3.63;;
68987;SDS011;56038;46.080;11.116;2023-05-10T05:27:37;4.43;;;3.35;;
68987;SDS011;56038;46.080;11.116;2023-05-10T05:32:38;4.68;;;3.85;;
68987;SDS011;56038;46.080;11.116;2023-05-10T05:37:41;4.22;;;3.92;;
68987;SDS011;56038;46.080;11.116;2023-05-10T05:42:43;5.13;;;3.80;;
68987;SDS011;56038;46.080;11.116;2023-05-10T05:47:45;4.57;;;3.90;;
68987;SDS011;56038;46.080;11.116;2023-05-10T05:52:48;3.80;;;3.50;;
68987;SDS011;56038;46.080;11.116;2023-05-10T05:57:50;4.78;;;3.95;;
68987;SDS011;56038;46.080;11.116;2023-05-10T06:02:51;5.07;;;3.70;;
68987;SDS011;56038;46.080;11.116;2023-05-10T06:07:54;4.22;;;3.20;;
68987;SDS011;56038;46.080;11.116;2023-05-10T06:12:56;6.22;;;3.95;;
68987;SDS011;56038;46.080;11.116;2023-05-10T06:17:58;3.95;;;3.55;;
68987;SDS011;56038;46.080;11.116;2023-05-10T06:23:01;3.92;;;3.63;;
68987;SDS011;56038;46.080;11.116;2023-05-10T06:28:02;4.93;;;3.35;;
68987;SDS011;56038;46.080;11.116;2023-05-10T06:33:04;6.40;;;4.45;;
68987;SDS011;56038;46.080;11.116;2023-05-10T06:38:07;4.95;;;4.00;;
68987;SDS011;56038;46.080;11.116;2023-05-10T06:43:09;4.15;;;3.17;;
68987;SDS011;56038;46.080;11.116;2023-05-10T06:48:10;5.93;;;3.50;;
68987;SDS011;56038;46.080;11.116;2023-05-10T06:53:13;4.93;;;3.70;;
68987;SDS011;56038;46.080;11.116;2023-05-10T06:58:15;4.55;;;3.80;;
68987;SDS011;56038;46.080;11.116;2023-05-10T07:03:17;6.57;;;3.83;;
68987;SDS011;56038;46.080;11.116;2023-05-10T07:08:20;8.02;;;4.15;;
68987;SDS011;56038;46.080;11.116;2023-05-10T07:13:21;4.45;;;3.55;;
68987;SDS011;56038;46.080;11.116;2023-05-10T07:18:23;5.30;;;3.70;;
68987;SDS011;56038;46.080;11.116;2023-05-10T07:23:26;5.68;;;3.00;;
68987;SDS011;56038;46.080;11.116;2023-05-10T07:28:28;4.05;;;3.35;;
68987;SDS011;56038;46.080;11.116;2023-05-10T07:33:30;3.70;;;3.20;;
68987;SDS011;56038;46.080;11.116;2023-05-10T07:38:33;4.72;;;3.17;;
68987;SDS011;56038;46.080;11.116;2023-05-10T07:43:35;3.22;;;2.92;;
68987;SDS011;56038;46.080;11.116;2023-05-10T07:48:36;4.57;;;3.00;;
68987;SDS011;56038;46.080;11.116;2023-05-10T07:53:39;4.28;;;3.45;;
68987;SDS011;56038;46.080;11.116;2023-05-10T07:58:41;4.18;;;3.08;;
68987;SDS011;56038;46.080;11.116;2023-05-10T08:03:43;4.25;;;3.20;;
68987;SDS011;56038;46.080;11.116;2023-05-10T08:08:46;5.03;;;3.25;;
68987;SDS011;56038;46.080;11.116;2023-05-10T08:13:50;5.10;;;3.78;;
68987;SDS011;56038;46.080;11.116;2023-05-10T08:18:52;5.05;;;3.25;;
68987;SDS011;56038;46.080;11.116;2023-05-10T08:23:56;3.78;;;3.10;;
68987;SDS011;56038;46.080;11.116;2023-05-10T08:28:58;4.55;;;3.67;;
68987;SDS011;56038;46.080;11.116;2023-05-10T08:33:59;4.00;;;3.58;;
68987;SDS011;56038;46.080;11.116;2023-05-10T08:39:02;5.68;;;2.97;;
68987;SDS011;56038;46.080;11.116;2023-05-10T08:44:04;3.80;;;3.28;;
68987;SDS011;56038;46.080;11.116;2023-05-10T08:49:07;3.35;;;2.90;;
68987;SDS011;56038;46.080;11.116;2023-05-10T08:54:10;4.40;;;2.75;;
68987;SDS011;56038;46.080;11.116;2023-05-10T08:59:12;5.88;;;3.17;;
68987;SDS011;56038;46.080;11.116;2023-05-10T09:04:15;3.22;;;2.88;;
68987;SDS011;56038;46.080;11.116;2023-05-10T09:09:18;3.88;;;3.15;;
68987;SDS011;56038;46.080;11.116;2023-05-10T09:14:21;3.20;;;2.90;;
68987;SDS011;56038;46.080;11.116;2023-05-10T09:19:25;3.25;;;2.30;;
68987;SDS011;56038;46.080;11.116;2023-05-10T09:24:28;3.13;;;2.83;;
68987;SDS011;56038;46.080;11.116;2023-05-10T09:29:38;5.63;;;3.53;;
68987;SDS011;56038;46.080;11.116;2023-05-10T09:34:40;3.13;;;2.70;;
68987;SDS011;56038;46.080;11.116;2023-05-10T09:39:43;2.80;;;2.60;;
68987;SDS011;56038;46.080;11.116;2023-05-10T09:44:45;3.10;;;2.45;;
68987;SDS011;56038;46.080;11.116;2023-05-10T09:49:49;2.83;;;2.63;;
68987;SDS011;56038;46.080;11.116;2023-05-10T09:54:53;3.00;;;2.70;;
68987;SDS011;56038;46.080;11.116;2023-05-10T09:59:55;3.38;;;3.08;;
68987;SDS011;56038;46.080;11.116;2023-05-10T10:04:58;6.22;;;2.90;;
68987;SDS011;56038;46.080;11.116;2023-05-10T10:10:04;4.25;;;2.95;;
68987;SDS011;56038;46.080;11.116;2023-05-10T10:15:11;3.10;;;2.80;;
68987;SDS011;56038;46.080;11.116;2023-05-10T10:20:13;4.78;;;3.25;;
68987;SDS011;56038;46.080;11.116;2023-05-10T10:25:17;6.55;;;4.68;;
68987;SDS011;56038;46.080;11.116;2023-05-10T10:30:23;4.57;;;3.40;;
68987;SDS011;56038;46.080;11.116;2023-05-10T10:35:30;3.03;;;2.70;;
68987;SDS011;56038;46.080;11.116;2023-05-10T10:40:35;2.65;;;2.10;;
68987;SDS011;56038;46.080;11.116;2023-05-10T10:45:38;4.43;;;2.60;;
68987;SDS011;56038;46.080;11.116;2023-05-10T10:50:44;7.10;;;4.88;;
68987;SDS011;56038;46.080;11.116;2023-05-10T10:55:48;1.70;;;1.42;;
68987;SDS011;56038;46.080;11.116;2023-05-10T11:00:50;1.30;;;1.20;;
68987;SDS011;56038;46.080;11.116;2023-05-10T11:06:16;2.55;;;1.52;;
68987;SDS011;56038;46.080;11.116;2023-05-10T11:11:35;1.40;;;1.30;;
68987;SDS011;56038;46.080;11.116;2023-05-10T11:16:40;1.50;;;1.40;;
68987;SDS011;56038;46.080;11.116;2023-05-10T11:21:47;1.50;;;1.40;;
68987;SDS011;56038;46.080;11.116;2023-05-10T11:26:51;2.33;;;1.40;;
68987;SDS011;56038;46.080;11.116;2023-05-10T11:31:52;1.73;;;1.48;;
68987;SDS011;56038;46.080;11.116;2023-05-10T11:36:57;2.20;;;1.67;;
68987;SDS011;56038;46.080;11.116;2023-05-10T11:42:02;2.13;;;1.38;;
68987;SDS011;56038;46.080;11.116;2023-05-10T11:47:04;1.65;;;1.55;;
68987;SDS011;56038;46.080;11.116;2023-05-10T11:52:07;2.85;;;2.00;;
68987;SDS011;56038;46.080;11.116;2023-05-10T11:57:12;1.85;;;1.50;;
68987;SDS011;56038;46.080;11.116;2023-05-10T12:02:14;2.45;;;1.63;;
68987;SDS011;56038;46.080;11.116;2023-05-10T12:07:16;2.90;;;1.85;;
68987;SDS011;56038;46.080;11.116;2023-05-10T12:12:19;4.22;;;1.88;;
68987;SDS011;56038;46.080;11.116;2023-05-10T12:17:20;1.83;;;1.73;;
68987;SDS011;56038;46.080;11.116;2023-05-10T12:22:22;1.92;;;1.83;;
68987;SDS011;56038;46.080;11.116;2023-05-10T12:27:25;1.60;;;1.50;;
68987;SDS011;56038;46.080;11.116;2023-05-10T12:32:39;1.40;;;1.30;;
68987;SDS011;56038;46.080;11.116;2023-05-10T12:37:41;1.70;;;1.20;;
68987;SDS011;56038;46.080;11.116;2023-05-10T12:42:45;1.83;;;1.40;;
68987;SDS011;56038;46.080;11.116;2023-05-10T12:47:46;7.72;;;4.45;;
68987;SDS011;56038;46.080;11.116;2023-05-10T12:52:48;2.53;;;1.33;;
68987;SDS011;56038;46.080;11.116;2023-05-10T12:57:51;1.75;;;1.33;;
68987;SDS011;56038;46.080;11.116;2023-05-10T13:02:53;4.45;;;1.40;;
68987;SDS011;56038;46.080;11.116;2023-05-10T13:07:55;1.50;;;1.40;;
68987;SDS011;56038;46.080;11.116;2023-05-10T13:12:58;1.40;;;1.25;;
68987;SDS011;56038;46.080;11.116;2023-05-10T13:18:00;1.40;;;1.30;;
68987;SDS011;56038;46.080;11.116;2023-05-10T13:23:02;3.58;;;1.15;;
68987;SDS011;56038;46.080;11.116;2023-05-10T13:28:05;0.70;;;0.70;;
68987;SDS011;56038;46.080;11.116;2023-05-10T13:33:06;1.10;;;0.50;;
68987;SDS011;56038;46.080;11.116;2023-05-10T13:38:08;1.25;;;0.60;;
68987;SDS011;56038;46.080;11.116;2023-05-10T13:43:11;0.60;;;0.60;;
68987;SDS011;56038;46.080;11.116;2023-05-10T13:48:13;0.63;;;0.63;;
68987;SDS011;56038;46.080;11.116;2023-05-10T13:53:16;1.33;;;0.50;;
68987;SDS011;56038;46.080;11.116;2023-05-10T13:58:19;0.95;;;0.40;;
68987;SDS011;56038;46.080;11.116;2023-05-10T14:03:21;0.30;;;0.30;;
68987;SDS011;56038;46.080;11.116;2023-05-10T14:08:23;1.38;;;0.30;;
68987;SDS011;56038;46.080;11.116;2023-05-10T14:13:28;1.15;;;0.50;;
68987;SDS011;56038;46.080;11.116;2023-05-10T14:18:30;0.52;;;0.52;;
68987;SDS011;56038;46.080;11.116;2023-05-10T14:23:31;0.40;;;0.40;;
68987;SDS011;56038;46.080;11.116;2023-05-10T14:28:34;1.38;;;0.50;;
68987;SDS011;56038;46.080;11.116;2023-05-10T14:33:36;0.60;;;0.60;;
68987;SDS011;56038;46.080;11.116;2023-05-10T14:38:38;0.95;;;0.47;;
68987;SDS011;56038;46.080;11.116;2023-05-10T14:43:41;2.97;;;1.42;;
68987;SDS011;56038;46.080;11.116;2023-05-10T14:48:43;0.68;;;0.60;;
68987;SDS011;56038;46.080;11.116;2023-05-10T14:53:45;2.05;;;0.70;;
68987;SDS011;56038;46.080;11.116;2023-05-10T14:58:49;0.82;;;0.40;;
68987;SDS011;56038;46.080;11.116;2023-05-10T15:03:51;0.80;;;0.60;;
68987;SDS011;56038;46.080;11.116;2023-05-10T15:08:52;1.05;;;0.60;;
68987;SDS011;56038;46.080;11.116;2023-05-10T15:13:56;2.10;;;1.17;;
68987;SDS011;56038;46.080;11.116;2023-05-10T15:18:57;3.30;;;2.10;;
68987;SDS011;56038;46.080;11.116;2023-05-10T15:23:59;1.15;;;0.82;;
68987;SDS011;56038;46.080;11.116;2023-05-10T15:29:02;0.60;;;0.50;;
68987;SDS011;56038;46.080;11.116;2023-05-10T15:34:04;1.10;;;0.60;;
68987;SDS011;56038;46.080;11.116;2023-05-10T15:39:05;0.80;;;0.47;;
68987;SDS011;56038;46.080;11.116;2023-05-10T15:44:08;2.25;;;0.30;;
68987;SDS011;56038;46.080;11.116;2023-05-10T15:49:11;0.38;;;0.30;;
68987;SDS011;56038;46.080;11.116;2023-05-10T15:54:12;0.30;;;0.30;;
68987;SDS011;56038;46.080;11.116;2023-05-10T15:59:15;1.80;;;0.30;;
68987;SDS011;56038;46.080;11.116;2023-05-10T16:04:17;0.60;;;0.43;;
68987;SDS011;56038;46.080;11.116;2023-05-10T16:09:18;0.32;;;0.30;;
68987;SDS011;56038;46.080;11.116;2023-05-10T16:14:22;1.13;;;0.40;;
68987;SDS011;56038;46.080;11.116;2023-05-10T16:19:24;0.30;;;0.30;;
68987;SDS011;56038;46.080;11.116;2023-05-10T16:24:27;0.80;;;0.30;;
68987;SDS011;56038;46.080;11.116;2023-05-10T16:29:32;1.77;;;0.77;;
68987;SDS011;56038;46.080;11.116;2023-05-10T16:34:34;0.25;;;0.25;;
68987;SDS011;56038;46.080;11.116;2023-05-10T16:39:36;1.13;;;0.60;;
68987;SDS011;56038;46.080;11.116;2023-05-10T16:44:40;2.60;;;1.00;;
68987;SDS011;56038;46.080;11.116;2023-05-10T16:49:42;0.65;;;0.52;;
68987;SDS011;56038;46.080;11.116;2023-05-10T16:54:44;0.88;;;0.50;;
68987;SDS011;56038;46.080;11.116;2023-05-10T16:59:47;0.52;;;0.43;;
68987;SDS011;56038;46.080;11.116;2023-05-10T17:04:49;1.63;;;0.80;;
68987;SDS011;56038;46.080;11.116;2023-05-10T17:09:52;1.75;;;0.70;;
68987;SDS011;56038;46.080;11.116;2023-05-10T17:14:55;2.05;;;1.00;;
68987;SDS011;56038;46.080;11.116;2023-05-10T17:19:57;1.20;;;0.98;;
68987;SDS011;56038;46.080;11.116;2023-05-10T17:24:59;1.20;;;1.02;;
68987;SDS011;56038;46.080;11.116;2023-05-10T17:30:02;0.88;;;0.82;;
68987;SDS011;56038;46.080;11.116;2023-05-10T17:35:05;1.20;;;0.77;;
68987;SDS011;56038;46.080;11.116;2023-05-10T17:40:08;1.50;;;0.90;;
68987;SDS011;56038;46.080;11.116;2023-05-10T17:45:12;21.92;;;7.45;;
68987;SDS011;56038;46.080;11.116;2023-05-10T17:50:14;24.92;;;9.60;;
68987;SDS011;56038;46.080;11.116;2023-05-10T17:55:16;2.53;;;1.70;;
68987;SDS011;56038;46.080;11.116;2023-05-10T18:00:19;0.82;;;0.82;;
68987;SDS011;56038;46.080;11.116;2023-05-10T18:05:23;2.75;;;1.08;;
68987;SDS011;56038;46.080;11.116;2023-05-10T18:10:27;1.30;;;1.20;;
68987;SDS011;56038;46.080;11.116;2023-05-10T18:15:30;1.50;;;1.40;;
68987;SDS011;56038;46.080;11.116;2023-05-10T18:20:32;0.90;;;0.60;;
68987;SDS011;56038;46.080;11.116;2023-05-10T18:25:33;0.88;;;0.52;;
68987;SDS011;56038;46.080;11.116;2023-05-10T18:30:36;0.75;;;0.75;;
68987;SDS011;56038;46.080;11.116;2023-05-10T18:35:39;0.95;;;0.60;;
68987;SDS011;56038;46.080;11.116;2023-05-10T18:40:41;0.55;;;0.55;;
68987;SDS011;56038;46.080;11.116;2023-05-10T18:45:44;0.75;;;0.60;;
68987;SDS011;56038;46.080;11.116;2023-05-10T18:50:46;1.77;;;1.30;;
68987;SDS011;56038;46.080;11.116;2023-05-10T18:55:53;0.88;;;0.80;;
68987;SDS011;56038;46.080;11.116;2023-05-10T19:00:58;0.73;;;0.63;;
68987;SDS011;56038;46.080;11.116;2023-05-10T19:06:03;0.93;;;0.63;;
68987;SDS011;56038;46.080;11.116;2023-05-10T19:11:17;0.98;;;0.68;;
68987;SDS011;56038;46.080;11.116;2023-05-10T19:16:22;1.23;;;0.80;;
68987;SDS011;56038;46.080;11.116;2023-05-10T19:21:24;1.17;;;1.00;;
68987;SDS011;56038;46.080;11.116;2023-05-10T19:26:27;1.17;;;0.80;;
68987;SDS011;56038;46.080;11.116;2023-05-10T19:31:30;1.05;;;0.75;;
68987;SDS011;56038;46.080;11.116;2023-05-10T19:36:32;0.75;;;0.60;;
68987;SDS011;56038;46.080;11.116;2023-05-10T19:41:34;1.63;;;1.10;;
68987;SDS011;56038;46.080;11.116;2023-05-10T19:46:37;2.58;;;1.10;;
68987;SDS011;56038;46.080;11.116;2023-05-10T19:51:40;1.75;;;1.00;;
68987;SDS011;56038;46.080;11.116;2023-05-10T19:56:42;1.15;;;1.05;;
68987;SDS011;56038;46.080;11.116;2023-05-10T20:01:48;1.20;;;0.98;;
68987;SDS011;56038;46.080;11.116;2023-05-10T20:06:50;1.05;;;1.00;;
68987;SDS011;56038;46.080;11.116;2023-05-10T20:11:52;0.75;;;0.75;;
68987;SDS011;56038;46.080;11.116;2023-05-10T20:16:57;1.92;;;0.95;;
68987;SDS011;56038;46.080;11.116;2023-05-10T20:21:59;1.42;;;0.80;;
68987;SDS011;56038;46.080;11.116;2023-05-10T20:27:03;11.55;;;6.95;;
68987;SDS011;56038;46.080;11.116;2023-05-10T20:32:08;2.67;;;1.45;;
68987;SDS011;56038;46.080;11.116;2023-05-10T20:37:10;1.10;;;0.98;;
68987;SDS011;56038;46.080;11.116;2023-05-10T20:42:12;1.02;;;0.80;;
68987;SDS011;56038;46.080;11.116;2023-05-10T20:47:18;1.10;;;1.00;;
68987;SDS011;56038;46.080;11.116;2023-05-10T20:52:22;1.67;;;1.10;;
68987;SDS011;56038;46.080;11.116;2023-05-10T20:57:24;0.98;;;0.80;;
68987;SDS011;56038;46.080;11.116;2023-05-10T21:02:27;1.00;;;0.80;;
68987;SDS011;56038;46.080;11.116;2023-05-10T21:07:29;0.82;;;0.82;;
68987;SDS011;56038;46.080;11.116;2023-05-10T21:12:31;0.70;;;0.70;;
68987;SDS011;56038;46.080;11.116;2023-05-10T21:17:34;0.70;;;0.70;;
68987;SDS011;56038;46.080;11.116;2023-05-10T21:22:36;1.85;;;0.90;;
68987;SDS011;56038;46.080;11.116;2023-05-10T21:27:38;0.90;;;0.80;;
68987;SDS011;56038;46.080;11.116;2023-05-10T21:32:41;1.00;;;0.77;;
68987;SDS011;56038;46.080;11.116;2023-05-10T21:37:42;1.23;;;0.80;;
68987;SDS011;56038;46.080;11.116;2023-05-10T21:42:44;1.38;;;1.27;;
68987;SDS011;56038;46.080;11.116;2023-05-10T21:47:49;1.95;;;0.80;;
68987;SDS011;56038;46.080;11.116;2023-05-10T21:52:51;0.90;;;0.90;;
68987;SDS011;56038;46.080;11.116;2023-05-10T21:57:53;0.70;;;0.70;;
68987;SDS011;56038;46.080;11.116;2023-05-10T22:02:56;1.10;;;0.73;;
68987;SDS011;56038;46.080;11.116;2023-05-10T22:07:57;0.95;;;0.60;;
68987;SDS011;56038;46.080;11.116;2023-05-10T22:12:59;0.80;;;0.68;;
68987;SDS011;56038;46.080;11.116;2023-05-10T22:18:02;0.77;;;0.60;;
68987;SDS011;56038;46.080;11.116;2023-05-10T22:23:04;0.90;;;0.75;;
68987;SDS011;56038;46.080;11.116;2023-05-10T22:28:06;0.60;;;0.52;;
68987;SDS011;56038;46.080;11.116;2023-05-10T22:33:09;1.00;;;0.60;;
68987;SDS011;56038;46.080;11.116;2023-05-10T22:38:11;0.70;;;0.70;;
68987;SDS011;56038;46.080;11.116;2023-05-10T22:43:12;0.90;;;0.63;;
68987;SDS011;56038;46.080;11.116;2023-05-10T22:48:18;0.93;;;0.50;;
68987;SDS011;56038;46.080;11.116;2023-05-10T22:53:21;0.60;;;0.60;;
68987;SDS011;56038;46.080;11.116;2023-05-10T22:58:22;1.30;;;0.93;;
68987;SDS011;56038;46.080;11.116;2023-05-10T23:03:25;0.77;;;0.65;;
68987;SDS011;56038;46.080;11.116;2023-05-10T23:08:27;1.15;;;0.70;;
68987;SDS011;56038;46.080;11.116;2023-05-10T23:13:29;0.60;;;0.45;;
68987;SDS011;56038;46.080;11.116;2023-05-10T23:18:32;1.00;;;0.75;;
68987;SDS011;56038;46.080;11.116;2023-05-10T23:23:34;0.75;;;0.60;;
68987;SDS011;56038;46.080;11.116;2023-05-10T23:28:36;0.50;;;0.50;;
68987;SDS011;56038;46.080;11.116;2023-05-10T23:33:39;1.98;;;0.50;;
68987;SDS011;56038;46.080;11.116;2023-05-10T23:38:40;0.60;;;0.57;;
68987;SDS011;56038;46.080;11.116;2023-05-10T23:43:42;1.00;;;0.70;;
68987;SDS011;56038;46.080;11.116;2023-05-10T23:48:45;0.50;;;0.45;;
68987;SDS011;56038;46.080;11.116;2023-05-10T23:53:47;1.65;;;0.70;;
68987;SDS011;56038;46.080;11.116;2023-05-10T23:58:49;1.85;;;0.80;;
